Time;durP1;ratioP1;P1;durP2;ratioP2;P2;SDS_P1;SDS_P2;PMS_P1;PMS_P2;Temp;Humidity;BMP_temperature;BMP_pressure;BME280_temperature;BME280_humidity;BME280_pressure;Samples;Min_cycle;Max_cycle;Signal;HPM_P1;HPM_P2
2021/12/26 00:00:25;;;;;;;0.00;0.00;;;-6.40;99.90;;;;;;4939709;28;20711;-61
2021/12/26 00:02:51;;;;;;;0.00;0.00;;;-6.20;99.90;;;;;;4939757;28;20130;-60
2021/12/26 00:05:18;;;;;;;0.00;0.00;;;-5.50;99.90;;;;;;4938568;28;20051;-61
2021/12/26 00:07:44;;;;;;;0.00;0.00;;;-6.50;99.90;;;;;;4940237;28;20136;-61
2021/12/26 00:10:13;;;;;;;0.00;0.00;;;-5.90;99.90;;;;;;4940552;28;20075;-60
2021/12/26 00:12:38;;;;;;;0.00;0.00;;;-6.20;99.90;;;;;;4939965;28;20118;-61
2021/12/26 00:15:05;;;;;;;0.00;0.00;;;-2.80;99.90;;;;;;4940214;28;20608;-61
2021/12/26 00:17:31;;;;;;;0.00;0.00;;;-6.60;99.90;;;;;;4940835;28;20054;-61
2021/12/26 00:19:57;;;;;;;0.00;0.00;;;-6.60;99.90;;;;;;4940188;28;20051;-61
2021/12/26 00:22:24;;;;;;;0.00;0.00;;;-6.70;99.90;;;;;;4938559;28;20058;-61
2021/12/26 00:24:50;;;;;;;0.00;0.00;;;-6.70;99.90;;;;;;4940424;28;20057;-61
2021/12/26 00:27:18;;;;;;;0.00;0.00;;;-6.60;99.90;;;;;;4938350;28;20686;-62
2021/12/26 00:29:44;;;;;;;0.00;0.00;;;-6.70;99.90;;;;;;4927854;29;20059;-61
2021/12/26 00:32:10;;;;;;;0.00;0.00;;;-6.30;99.90;;;;;;4939516;28;20046;-61
2021/12/26 00:34:37;;;;;;;0.00;0.00;;;-6.70;99.90;;;;;;4940197;28;20067;-61
2021/12/26 00:37:04;;;;;;;0.00;0.00;;;-6.70;99.90;;;;;;4939224;28;20051;-63
2021/12/26 00:39:30;;;;;;;0.00;0.00;;;-6.70;99.90;;;;;;4940610;28;20043;-61
2021/12/26 00:41:55;;;;;;;0.00;0.00;;;-6.70;99.90;;;;;;4937735;28;20747;-60
2021/12/26 00:44:21;;;;;;;0.00;0.00;;;-6.70;99.90;;;;;;4939883;28;20662;-60
2021/12/26 00:46:46;;;;;;;0.00;0.00;;;-7.00;99.90;;;;;;4939935;28;20047;-61
2021/12/26 00:49:12;;;;;;;0.00;0.00;;;-4.90;99.90;;;;;;4939795;28;20119;-61
2021/12/26 00:51:38;;;;;;;0.00;0.00;;;-6.30;99.90;;;;;;4938094;28;20560;-60
2021/12/26 00:54:03;;;;;;;0.00;0.00;;;-5.40;99.90;;;;;;4939723;28;20089;-61
2021/12/26 00:56:29;;;;;;;0.00;0.00;;;-6.70;99.90;;;;;;4940264;28;20134;-61
2021/12/26 00:58:55;;;;;;;0.00;0.00;;;-4.10;99.90;;;;;;4939593;28;20049;-61
2021/12/26 01:01:21;;;;;;;0.00;0.00;;;-6.00;99.90;;;;;;4938905;28;20047;-61
2021/12/26 01:03:46;;;;;;;0.00;0.00;;;-4.10;99.90;;;;;;4939571;28;20502;-61
2021/12/26 01:06:12;;;;;;;0.00;0.00;;;-6.80;99.90;;;;;;4938866;28;20086;-61
2021/12/26 01:08:41;;;;;;;0.00;0.00;;;-6.80;99.90;;;;;;4937924;28;20035;-60
2021/12/26 01:11:20;;;;;;;0.00;0.00;;;-6.70;99.90;;;;;;4939999;28;20044;-61
2021/12/26 01:13:48;;;;;;;0.00;0.00;;;-6.80;99.90;;;;;;4939697;28;20391;-60
2021/12/26 01:16:15;;;;;;;0.00;0.00;;;-7.10;99.90;;;;;;4938372;28;20624;-61
2021/12/26 01:18:47;;;;;;;0.00;0.00;;;-5.60;99.90;;;;;;4939109;28;20699;-63
2021/12/26 01:21:25;;;;;;;0.00;0.00;;;-6.80;99.90;;;;;;4937597;29;20047;-61
2021/12/26 01:23:54;;;;;;;0.00;0.00;;;-6.80;99.90;;;;;;4938275;28;20085;-61
2021/12/26 01:26:20;;;;;;;0.00;0.00;;;-6.80;99.90;;;;;;4939128;28;20055;-61
2021/12/26 01:28:46;;;;;;;0.00;0.00;;;-6.50;99.90;;;;;;4933565;28;20046;-61
2021/12/26 01:31:18;;;;;;;0.40;0.40;;;-6.70;99.90;;;;;;4934556;28;20047;-61
2021/12/26 01:33:45;;;;;;;0.00;0.00;;;-6.80;99.90;;;;;;4920141;29;20055;-61
2021/12/26 01:36:11;;;;;;;0.00;0.00;;;-6.90;99.90;;;;;;4919422;28;20537;-61
2021/12/26 01:38:37;;;;;;;0.00;0.00;;;-6.40;99.90;;;;;;4920223;29;20044;-61
2021/12/26 01:41:09;;;;;;;0.00;0.00;;;-6.20;99.90;;;;;;4919201;29;20105;-62
2021/12/26 01:43:36;;;;;;;0.00;0.00;;;-6.90;99.90;;;;;;4919832;29;20070;-62
2021/12/26 01:46:02;;;;;;;0.00;0.00;;;-6.50;99.90;;;;;;4920127;29;20134;-61
2021/12/26 01:48:28;;;;;;;0.00;0.00;;;-7.40;99.90;;;;;;4920682;29;20054;-61
2021/12/26 01:50:54;;;;;;;0.00;0.00;;;-6.80;99.90;;;;;;4918631;28;20523;-60
2021/12/26 01:53:23;;;;;;;0.00;0.00;;;-6.90;99.90;;;;;;4919834;29;20117;-60
2021/12/26 01:55:51;;;;;;;0.00;0.00;;;-7.00;99.90;;;;;;4920136;29;20048;-62
2021/12/26 01:58:21;;;;;;;0.00;0.00;;;-6.70;99.90;;;;;;4918961;29;20158;-61
2021/12/26 02:00:51;;;;;;;0.00;0.00;;;-6.50;99.90;;;;;;4920020;29;20039;-60
2021/12/26 02:03:17;;;;;;;0.00;0.00;;;-6.50;99.90;;;;;;4918042;29;20063;-61
2021/12/26 02:05:43;;;;;;;0.00;0.00;;;;;;;;;;4918444;29;20050;-60
2021/12/26 02:08:09;;;;;;;0.00;0.00;;;-6.90;99.90;;;;;;4934470;23;20078;-70
2021/12/26 02:10:35;;;;;;;0.00;0.00;;;-6.90;99.90;;;;;;4948196;28;20051;-71
2021/12/26 02:13:01;;;;;;;0.00;0.00;;;-6.40;99.90;;;;;;4938584;28;20584;-70
2021/12/26 02:15:27;;;;;;;0.00;0.00;;;-7.20;99.90;;;;;;4948366;28;20057;-70
2021/12/26 02:17:53;;;;;;;0.00;0.00;;;-7.20;99.90;;;;;;4957595;28;20121;-70
2021/12/26 02:20:23;;;;;;;0.00;0.00;;;-7.00;99.90;;;;;;4938929;28;20047;-70
2021/12/26 02:22:56;;;;;;;0.00;0.00;;;;;;;;;;4957819;28;20059;-70
2021/12/26 02:27:30;;;;;;;0.00;0.00;;;-7.00;99.90;;;;;;4955559;28;20061;-70
2021/12/26 02:28:16;;;;;;;0.00;0.00;;;-7.00;99.90;;;;;;4952293;28;20129;-70
2021/12/26 02:30:41;;;;;;;0.00;0.00;;;-6.20;99.90;;;;;;4946065;28;20047;-69
2021/12/26 02:33:11;;;;;;;0.00;0.00;;;-7.30;99.90;;;;;;4938458;28;20489;-70
2021/12/26 02:35:41;;;;;;;0.00;0.00;;;-7.00;99.90;;;;;;4937476;28;20054;-70
2021/12/26 02:38:08;;;;;;;0.00;0.00;;;-7.20;99.90;;;;;;4952340;28;20448;-70
2021/12/26 02:40:34;;;;;;;0.00;0.00;;;-7.10;99.90;;;;;;4952907;28;20093;-70
2021/12/26 02:43:00;;;;;;;0.00;0.00;;;-7.10;99.90;;;;;;4938702;28;20082;-70
2021/12/26 02:45:26;;;;;;;0.00;0.00;;;-6.90;99.90;;;;;;4938204;28;20047;-70
2021/12/26 02:47:52;;;;;;;0.00;0.00;;;-5.10;99.90;;;;;;4937124;28;20047;-70
2021/12/26 02:50:27;;;;;;;0.00;0.00;;;-6.30;99.90;;;;;;4937399;28;20097;-70
2021/12/26 02:52:54;;;;;;;0.00;0.00;;;-7.10;99.90;;;;;;4936415;28;20079;-70
2021/12/26 02:55:21;;;;;;;0.00;0.00;;;-7.20;99.90;;;;;;4937389;28;20576;-69
2021/12/26 02:57:53;;;;;;;0.00;0.00;;;-7.10;99.90;;;;;;4936451;28;20047;-70
2021/12/26 03:00:21;;;;;;;0.00;0.00;;;-7.50;99.90;;;;;;4937111;28;20055;-70
2021/12/26 03:02:50;;;;;;;0.00;0.00;;;-7.00;99.90;;;;;;4937085;28;20047;-70
2021/12/26 03:05:17;;;;;;;0.00;0.00;;;-7.00;99.90;;;;;;4937490;28;20055;-69
2021/12/26 03:07:44;;;;;;;0.00;0.00;;;-7.10;99.90;;;;;;4937690;28;20043;-70
2021/12/26 03:10:17;;;;;;;0.00;0.00;;;-8.10;99.90;;;;;;4936240;28;20505;-70
2021/12/26 03:12:43;;;;;;;0.00;0.00;;;-6.30;99.90;;;;;;4937120;28;20054;-71
2021/12/26 03:15:10;;;;;;;0.10;0.10;;;-6.70;99.90;;;;;;4937669;28;20031;-70
2021/12/26 03:17:37;;;;;;;0.00;0.00;;;-7.10;99.90;;;;;;4952469;28;20055;-70
2021/12/26 03:20:11;;;;;;;0.00;0.00;;;-6.50;99.90;;;;;;4934872;28;20043;-71
2021/12/26 03:22:37;;;;;;;0.00;0.00;;;-7.00;99.90;;;;;;4952824;28;20043;-70
2021/12/26 03:25:05;;;;;;;0.00;0.00;;;-5.60;99.90;;;;;;4936117;29;20152;-71
2021/12/26 03:27:30;;;;;;;0.00;0.00;;;-7.90;99.90;;;;;;4938251;28;20100;-70
2021/12/26 03:29:56;;;;;;;0.00;0.00;;;-8.60;99.90;;;;;;4947296;28;20043;-69
2021/12/26 03:32:23;;;;;;;0.00;0.00;;;-7.20;99.90;;;;;;4936757;28;20352;-70
2021/12/26 03:34:50;;;;;;;0.00;0.00;;;-6.70;99.90;;;;;;4936423;28;20051;-70
2021/12/26 03:37:15;;;;;;;0.00;0.00;;;-7.10;99.90;;;;;;4935741;28;20428;-68
2021/12/26 03:39:41;;;;;;;0.00;0.00;;;-7.10;99.90;;;;;;4937104;28;20055;-69
2021/12/26 03:42:07;;;;;;;0.00;0.00;;;-7.10;99.90;;;;;;4951977;28;20101;-70
2021/12/26 03:44:33;;;;;;;0.00;0.00;;;-7.20;99.90;;;;;;4937440;28;20055;-71
2021/12/26 03:46:59;;;;;;;0.00;0.00;;;-7.20;99.90;;;;;;4936718;28;20047;-70
2021/12/26 03:49:26;;;;;;;0.00;0.00;;;-8.10;99.90;;;;;;4937399;28;20771;-70
2021/12/26 03:51:51;;;;;;;0.00;0.00;;;-6.90;99.90;;;;;;4936558;28;20062;-70
2021/12/26 03:54:17;;;;;;;0.00;0.00;;;-7.20;99.90;;;;;;4936174;29;20688;-70
2021/12/26 03:56:43;;;;;;;0.00;0.00;;;-8.50;99.90;;;;;;4934832;28;20049;-70
2021/12/26 03:59:09;;;;;;;0.00;0.00;;;-8.30;99.90;;;;;;4952176;28;20062;-70
2021/12/26 04:01:35;;;;;;;0.00;0.00;;;-7.20;99.90;;;;;;4937733;28;20043;-71
2021/12/26 04:04:01;;;;;;;0.00;0.00;;;-7.20;99.90;;;;;;4937387;28;20051;-70
2021/12/26 04:06:26;;;;;;;0.00;0.00;;;-7.00;99.90;;;;;;4935424;28;20674;-70
2021/12/26 04:08:52;;;;;;;0.00;0.00;;;-8.00;99.90;;;;;;4936005;28;20289;-70
2021/12/26 04:11:17;;;;;;;0.00;0.00;;;-6.90;99.90;;;;;;4935956;28;20122;-70
2021/12/26 04:13:43;;;;;;;0.00;0.00;;;-7.40;99.90;;;;;;4951559;28;20578;-70
2021/12/26 04:16:09;;;;;;;0.00;0.00;;;-8.50;99.90;;;;;;4951008;28;20084;-71
2021/12/26 04:18:35;;;;;;;0.00;0.00;;;;;;;;;;4952077;28;20051;-69
2021/12/26 04:21:01;;;;;;;0.00;0.00;;;-6.60;99.90;;;;;;4936115;28;20055;-70
2021/12/26 04:23:27;;;;;;;0.00;0.00;;;-7.40;99.90;;;;;;4935934;28;20058;-71
2021/12/26 04:25:52;;;;;;;0.00;0.00;;;-8.90;99.90;;;;;;4936518;28;20047;-71
2021/12/26 04:28:19;;;;;;;0.00;0.00;;;-7.20;99.90;;;;;;4938727;28;20074;-69
2021/12/26 04:30:46;;;;;;;0.00;0.00;;;-7.30;99.90;;;;;;4943732;28;20059;-69
2021/12/26 04:33:12;;;;;;;0.00;0.00;;;-7.50;99.90;;;;;;4936081;28;20048;-69
2021/12/26 04:35:38;;;;;;;0.00;0.00;;;-8.20;99.90;;;;;;4950969;28;20043;-69
2021/12/26 04:38:03;;;;;;;0.00;0.00;;;-7.30;99.90;;;;;;4951242;28;20066;-69
2021/12/26 04:40:29;;;;;;;0.00;0.00;;;-5.90;99.90;;;;;;4952388;28;20052;-69
2021/12/26 04:42:55;;;;;;;0.00;0.00;;;-7.20;99.90;;;;;;4952192;28;20053;-69
2021/12/26 04:45:21;;;;;;;0.00;0.00;;;-7.30;99.90;;;;;;4954429;28;20049;-69
2021/12/26 04:47:49;;;;;;;0.00;0.00;;;-7.20;99.90;;;;;;4939962;28;20062;-69
2021/12/26 04:50:19;;;;;;;0.00;0.00;;;-7.80;99.90;;;;;;4939108;28;20418;-65
2021/12/26 04:52:45;;;;;;;0.00;0.00;;;-8.00;99.90;;;;;;4939155;28;20051;-68
2021/12/26 04:55:16;;;;;;;0.00;0.00;;;-6.60;99.90;;;;;;4938474;28;20077;-69
2021/12/26 04:57:42;;;;;;;0.00;0.00;;;-7.30;99.90;;;;;;4939787;28;20059;-68
2021/12/26 05:00:10;;;;;;;0.00;0.00;;;-6.00;99.90;;;;;;4938703;28;20254;-69
2021/12/26 05:02:36;;;;;;;0.00;0.00;;;-7.30;99.90;;;;;;4938853;29;20492;-69
2021/12/26 05:05:07;;;;;;;0.00;0.00;;;-7.20;99.90;;;;;;4937865;28;20055;-65
2021/12/26 05:07:33;;;;;;;0.00;0.00;;;-7.30;99.90;;;;;;4939592;28;20050;-68
2021/12/26 05:09:59;;;;;;;0.00;0.00;;;-7.80;99.90;;;;;;4938936;28;20102;-69
2021/12/26 05:12:25;;;;;;;0.00;0.00;;;-6.20;99.90;;;;;;4938362;28;20109;-69
2021/12/26 05:14:52;;;;;;;0.00;0.00;;;-7.30;99.90;;;;;;4953879;28;20600;-69
2021/12/26 05:17:17;;;;;;;0.00;0.00;;;-4.80;99.90;;;;;;4939073;28;20422;-69
2021/12/26 05:19:43;;;;;;;0.00;0.00;;;-7.00;99.90;;;;;;4953347;28;20105;-69
2021/12/26 05:22:09;;;;;;;0.00;0.00;;;-7.30;99.90;;;;;;4954469;28;20043;-69
2021/12/26 05:24:35;;;;;;;0.00;0.00;;;-7.30;99.90;;;;;;4954690;28;20134;-70
2021/12/26 05:27:01;;;;;;;0.00;0.00;;;-7.20;99.90;;;;;;4938959;28;20039;-69
2021/12/26 05:29:26;;;;;;;0.00;0.00;;;-6.90;99.90;;;;;;4944519;28;20126;-70
2021/12/26 05:31:53;;;;;;;0.00;0.00;;;-9.20;99.90;;;;;;4958659;28;20565;-69
2021/12/26 05:34:19;;;;;;;0.00;0.00;;;-6.70;99.90;;;;;;4957111;28;20047;-68
2021/12/26 05:36:45;;;;;;;0.00;0.00;;;-7.40;99.90;;;;;;4957555;28;20046;-72
2021/12/26 05:39:11;;;;;;;0.00;0.00;;;-7.30;99.90;;;;;;4956955;28;20054;-69
2021/12/26 05:41:38;;;;;;;0.00;0.00;;;-5.60;99.90;;;;;;4958789;28;20051;-68
2021/12/26 05:44:05;;;;;;;0.00;0.00;;;-7.00;99.90;;;;;;4958023;28;20102;-69
2021/12/26 05:46:30;;;;;;;0.00;0.00;;;-7.30;99.90;;;;;;4940831;28;20776;-69
2021/12/26 05:48:56;;;;;;;0.00;0.00;;;-7.80;99.90;;;;;;4957259;28;20038;-69
2021/12/26 05:51:22;;;;;;;0.00;0.00;;;-7.70;99.90;;;;;;4957133;28;20088;-69
2021/12/26 05:53:47;;;;;;;0.00;0.00;;;-6.30;99.90;;;;;;4955682;28;20058;-68
2021/12/26 05:56:13;;;;;;;0.00;0.00;;;-4.80;99.90;;;;;;4957646;28;20497;-69
2021/12/26 05:58:39;;;;;;;0.00;0.00;;;-7.30;99.90;;;;;;4940792;28;20082;-69
2021/12/26 06:01:05;;;;;;;0.00;0.00;;;-7.30;99.90;;;;;;4956605;28;20055;-69
2021/12/26 06:03:31;;;;;;;0.00;0.00;;;-6.50;99.90;;;;;;4957277;28;20054;-69
2021/12/26 06:05:56;;;;;;;0.00;0.00;;;-6.00;99.90;;;;;;4956288;28;20547;-68
2021/12/26 06:08:22;;;;;;;0.00;0.00;;;-6.50;99.90;;;;;;4956409;28;20059;-69
2021/12/26 06:10:48;;;;;;;0.00;0.00;;;-9.00;99.90;;;;;;4956752;28;20062;-69
2021/12/26 06:13:14;;;;;;;0.00;0.00;;;-6.30;99.90;;;;;;4940086;28;20046;-69
2021/12/26 06:15:39;;;;;;;0.00;0.00;;;-7.90;99.90;;;;;;4957493;28;20088;-69
2021/12/26 06:18:05;;;;;;;0.00;0.00;;;-7.70;99.90;;;;;;4940485;28;20082;-69
2021/12/26 06:20:30;;;;;;;0.00;0.00;;;-6.70;99.90;;;;;;4957186;28;20039;-69
2021/12/26 06:22:56;;;;;;;0.00;0.00;;;-6.00;99.90;;;;;;4955360;28;20054;-69
2021/12/26 06:25:22;;;;;;;0.00;0.00;;;-5.60;99.90;;;;;;4957628;28;20112;-69
2021/12/26 06:27:47;;;;;;;0.00;0.00;;;-7.30;99.90;;;;;;4955329;28;20126;-69
2021/12/26 06:30:13;;;;;;;0.00;0.00;;;-7.20;99.90;;;;;;4947083;28;20119;-69
2021/12/26 06:32:39;;;;;;;0.00;0.00;;;-6.60;99.90;;;;;;4937522;28;20491;-70
2021/12/26 06:35:05;;;;;;;0.00;0.00;;;-7.20;99.90;;;;;;4952443;28;20126;-70
2021/12/26 06:37:31;;;;;;;0.00;0.00;;;-8.60;99.90;;;;;;4938562;28;20058;-70
2021/12/26 06:39:59;;;;;;;0.00;0.00;;;-6.00;99.90;;;;;;4938164;28;20052;-71
2021/12/26 06:42:27;;;;;;;0.00;0.00;;;-6.50;99.90;;;;;;4937256;28;20407;-70
2021/12/26 06:44:52;;;;;;;0.00;0.00;;;-6.10;99.90;;;;;;4937975;28;20780;-70
2021/12/26 06:47:18;;;;;;;0.00;0.00;;;-6.80;99.90;;;;;;4936836;28;20043;-69
2021/12/26 06:49:44;;;;;;;0.00;0.00;;;-6.90;99.90;;;;;;4937625;28;20093;-69
2021/12/26 06:52:10;;;;;;;0.00;0.00;;;-7.40;99.90;;;;;;4936993;28;20587;-70
2021/12/26 06:54:40;;;;;;;0.00;0.00;;;-7.40;99.90;;;;;;4938131;28;20166;-70
2021/12/26 06:57:06;;;;;;;0.00;0.00;;;-7.30;99.90;;;;;;4938084;28;20146;-70
2021/12/26 06:59:33;;;;;;;0.00;0.00;;;-7.00;99.90;;;;;;4937577;28;20058;-70
2021/12/26 07:01:58;;;;;;;0.00;0.00;;;-7.20;99.90;;;;;;4938534;28;20043;-70
2021/12/26 07:04:24;;;;;;;0.00;0.00;;;-7.50;99.90;;;;;;4936956;28;20144;-70
2021/12/26 07:06:50;;;;;;;0.00;0.00;;;-7.70;99.90;;;;;;4937690;28;20040;-72
2021/12/26 07:09:15;;;;;;;0.00;0.00;;;-6.00;99.90;;;;;;4937172;28;20063;-67
2021/12/26 07:11:41;;;;;;;0.00;0.00;;;-7.20;99.90;;;;;;4936395;28;20125;-72
2021/12/26 07:14:07;;;;;;;0.00;0.00;;;-7.90;99.90;;;;;;4937752;28;20070;-72
2021/12/26 07:16:33;;;;;;;0.00;0.00;;;-7.40;99.90;;;;;;4937947;28;20054;-71
2021/12/26 07:18:59;;;;;;;0.00;0.00;;;-7.70;99.90;;;;;;4937278;28;20062;-70
2021/12/26 07:21:25;;;;;;;0.00;0.00;;;-7.60;99.90;;;;;;4936932;28;20043;-70
2021/12/26 07:23:50;;;;;;;0.00;0.00;;;-5.70;99.90;;;;;;4937616;28;20180;-73
2021/12/26 07:26:16;;;;;;;0.00;0.00;;;-7.40;99.90;;;;;;4937936;28;20055;-70
2021/12/26 07:28:42;;;;;;;0.00;0.00;;;-7.60;99.90;;;;;;4941639;28;20117;-70
2021/12/26 07:31:08;;;;;;;0.00;0.00;;;-7.00;99.90;;;;;;4942888;28;20839;-70
2021/12/26 07:33:34;;;;;;;0.00;0.00;;;-7.00;99.90;;;;;;4937574;28;20173;-71
2021/12/26 07:35:59;;;;;;;0.00;0.00;;;-6.70;99.90;;;;;;4936771;28;20123;-69
2021/12/26 07:38:25;;;;;;;0.00;0.00;;;-8.50;99.90;;;;;;4936485;28;20580;-69
2021/12/26 07:40:51;;;;;;;0.00;0.00;;;-7.00;99.90;;;;;;4937854;28;20051;-69
2021/12/26 07:43:16;;;;;;;0.00;0.00;;;-7.40;99.90;;;;;;4936010;28;20389;-72
2021/12/26 07:45:42;;;;;;;0.00;0.00;;;-7.50;99.90;;;;;;4936927;28;20074;-71
2021/12/26 07:48:08;;;;;;;0.00;0.00;;;-7.00;99.90;;;;;;4936579;28;20051;-74
2021/12/26 07:50:33;;;;;;;0.00;0.00;;;-7.50;99.90;;;;;;4936489;28;20672;-70
2021/12/26 07:53:05;;;;;;;0.00;0.00;;;;;;;;;;4952321;28;20555;-70
2021/12/26 07:55:31;;;;;;;0.00;0.00;;;;;;;;;;4951537;28;20134;-69
2021/12/26 07:57:57;;;;;;;0.00;0.00;;;-6.90;99.90;;;;;;4936808;28;20055;-70
2021/12/26 08:00:23;;;;;;;0.00;0.00;;;-7.50;99.90;;;;;;4937166;28;20043;-69
2021/12/26 08:02:49;;;;;;;0.00;0.00;;;-5.00;99.90;;;;;;4952015;28;20444;-69
2021/12/26 08:05:15;;;;;;;0.00;0.00;;;-7.80;99.90;;;;;;4950087;28;20078;-69
2021/12/26 08:07:41;;;;;;;0.00;0.00;;;-6.60;99.90;;;;;;4936973;28;20043;-69
2021/12/26 08:10:09;;;;;;;0.00;0.00;;;-7.50;99.90;;;;;;4937044;28;20125;-71
2021/12/26 08:12:34;;;;;;;0.00;0.00;;;-7.30;99.90;;;;;;4919707;28;20043;-69
2021/12/26 08:15:02;;;;;;;0.00;0.00;;;-9.30;99.90;;;;;;4951199;28;20397;-70
2021/12/26 08:17:29;;;;;;;0.00;0.00;;;-7.60;99.90;;;;;;4990459;28;20672;-69
2021/12/26 08:19:56;;;;;;;0.00;0.00;;;-7.30;99.90;;;;;;4995959;28;20037;-71
2021/12/26 08:22:22;;;;;;;0.00;0.00;;;-6.80;99.90;;;;;;5039899;28;20049;-69
2021/12/26 08:24:47;;;;;;;0.00;0.00;;;-6.60;99.90;;;;;;5039066;28;20048;-69
2021/12/26 08:27:14;;;;;;;0.00;0.00;;;-7.20;99.90;;;;;;5039405;28;20056;-68
2021/12/26 08:29:41;;;;;;;0.00;0.00;;;-5.40;99.90;;;;;;4950886;28;20077;-73
2021/12/26 08:32:11;;;;;;;0.00;0.00;;;-6.80;99.90;;;;;;4954573;28;20043;-70
2021/12/26 08:34:37;;;;;;;0.00;0.00;;;-7.10;99.90;;;;;;4953859;28;20055;-70
2021/12/26 08:37:04;;;;;;;0.00;0.00;;;-7.60;99.90;;;;;;4938515;28;20075;-69
2021/12/26 08:39:39;;;;;;;0.00;0.00;;;-6.60;99.90;;;;;;4955412;28;20070;-72
2021/12/26 08:42:07;;;;;;;0.00;0.00;;;-7.90;99.90;;;;;;4954125;28;20057;-70
2021/12/26 08:44:33;;;;;;;0.00;0.00;;;-7.10;99.90;;;;;;4961643;28;20067;-65
2021/12/26 08:46:59;;;;;;;0.00;0.00;;;-7.40;99.90;;;;;;5039286;28;20049;-69
2021/12/26 08:49:25;;;;;;;0.00;0.00;;;-5.70;99.90;;;;;;5037754;28;20457;-69
2021/12/26 08:51:51;;;;;;;0.00;0.00;;;-7.50;99.90;;;;;;5038893;28;20049;-68
2021/12/26 08:54:17;;;;;;;0.00;0.00;;;-6.80;99.90;;;;;;5040370;28;20041;-71
2021/12/26 08:56:42;;;;;;;0.00;0.00;;;-8.00;99.90;;;;;;5040539;28;20084;-71
2021/12/26 08:59:09;;;;;;;0.00;0.00;;;-6.90;99.90;;;;;;5039848;28;20128;-70
2021/12/26 09:01:36;;;;;;;0.00;0.00;;;-5.50;99.90;;;;;;5038671;28;20094;-72
2021/12/26 09:04:03;;;;;;;0.00;0.00;;;-5.60;99.90;;;;;;5039644;28;20041;-69
2021/12/26 09:06:28;;;;;;;0.00;0.00;;;-7.10;99.90;;;;;;5039603;28;20049;-72
2021/12/26 09:08:54;;;;;;;0.00;0.00;;;-3.60;99.90;;;;;;5038984;28;20090;-70
2021/12/26 09:11:20;;;;;;;0.00;0.00;;;-6.10;99.90;;;;;;5038740;28;20127;-70
2021/12/26 09:13:46;;;;;;;0.00;0.00;;;-2.50;99.90;;;;;;5040092;28;20055;-69
2021/12/26 09:16:12;;;;;;;0.22;0.22;;;-4.90;99.90;;;;;;5039089;28;20047;-64
2021/12/26 09:18:38;;;;;;;0.00;0.00;;;-5.90;99.90;;;;;;5039167;28;20045;-70
2021/12/26 09:21:03;;;;;;;0.00;0.00;;;-4.00;99.90;;;;;;5039187;28;20081;-72
2021/12/26 09:23:29;;;;;;;0.00;0.00;;;-4.60;99.90;;;;;;5040888;28;20072;-71
2021/12/26 09:25:55;;;;;;;0.00;0.00;;;;;;;;;;5039843;28;20463;-70
2021/12/26 09:28:21;;;;;;;0.00;0.00;;;-4.90;99.90;;;;;;4993274;28;20132;-70
2021/12/26 09:30:47;;;;;;;0.00;0.00;;;-4.70;99.90;;;;;;4947175;28;20109;-70
2021/12/26 09:33:19;;;;;;;0.00;0.00;;;-2.40;99.90;;;;;;4953560;28;20138;-70
2021/12/26 09:35:49;;;;;;;0.00;0.00;;;-4.00;99.90;;;;;;4937275;28;20050;-71
2021/12/26 09:38:15;;;;;;;0.00;0.00;;;-2.60;99.90;;;;;;4937287;28;20521;-71
2021/12/26 09:40:41;;;;;;;0.00;0.00;;;-2.30;99.90;;;;;;4953317;28;20070;-65
2021/12/26 09:43:06;;;;;;;0.00;0.00;;;-1.30;99.90;;;;;;4996538;28;20510;-71
2021/12/26 09:45:32;;;;;;;0.00;0.00;;;-2.00;99.90;;;;;;4996598;28;20039;-70
2021/12/26 09:47:58;;;;;;;0.00;0.00;;;1.30;99.90;;;;;;4961314;28;20050;-69
2021/12/26 09:50:24;;;;;;;0.00;0.00;;;0.90;99.90;;;;;;4957207;28;20508;-69
2021/12/26 09:52:53;;;;;;;0.00;0.00;;;2.50;99.90;;;;;;4957775;28;20043;-64
2021/12/26 09:55:19;;;;;;;0.00;0.00;;;3.20;99.90;;;;;;4956330;28;20055;-68
2021/12/26 09:57:45;;;;;;;0.00;0.00;;;0.80;99.90;;;;;;4958283;28;20470;-69
2021/12/26 10:00:31;;;;;;;0.00;0.00;;;-0.20;99.90;;;;;;4956447;28;20192;-69
2021/12/26 10:03:12;;;;;;;0.00;0.00;;;2.00;99.90;;;;;;4957468;28;20091;-70
2021/12/26 10:05:56;;;;;;;0.00;0.00;;;2.20;99.90;;;;;;4955675;28;20073;-69
2021/12/26 10:08:22;;;;;;;0.03;0.03;;;2.00;99.90;;;;;;4956155;28;20055;-70
2021/12/26 10:11:11;;;;;;;0.00;0.00;;;3.10;99.90;;;;;;4940235;28;20059;-69
2021/12/26 10:13:39;;;;;;;0.00;0.00;;;2.80;99.90;;;;;;4957320;28;20054;-70
2021/12/26 10:16:05;;;;;;;0.00;0.00;;;2.80;99.90;;;;;;4955864;28;20070;-71
2021/12/26 10:18:31;;;;;;;0.00;0.00;;;3.80;99.90;;;;;;4957320;28;20086;-68
2021/12/26 10:20:57;;;;;;;0.00;0.00;;;2.20;99.90;;;;;;4956235;28;20042;-69
2021/12/26 10:23:28;;;;;;;0.00;0.00;;;3.20;98.60;;;;;;4964905;28;20518;-70
2021/12/26 10:25:54;;;;;;;0.00;0.00;;;3.70;99.30;;;;;;5004379;28;20053;-69
2021/12/26 10:28:19;;;;;;;0.00;0.00;;;3.40;99.90;;;;;;5001220;28;20057;-69
2021/12/26 10:30:46;;;;;;;0.00;0.00;;;5.00;99.90;;;;;;4949918;28;20047;-69
2021/12/26 10:33:11;;;;;;;0.00;0.00;;;5.40;99.90;;;;;;4957496;28;20078;-69
2021/12/26 10:35:37;;;;;;;0.00;0.00;;;4.50;96.60;;;;;;4956865;28;20449;-70
2021/12/26 10:38:15;;;;;;;0.00;0.00;;;4.60;96.50;;;;;;4956703;28;20079;-71
2021/12/26 10:40:41;;;;;;;0.00;0.00;;;4.60;97.90;;;;;;4956646;28;20039;-72
2021/12/26 10:43:10;;;;;;;0.00;0.00;;;4.50;93.30;;;;;;4957314;28;20081;-76
2021/12/26 10:45:35;;;;;;;0.00;0.00;;;3.70;96.60;;;;;;4955854;28;20054;-70
2021/12/26 10:48:07;;;;;;;0.00;0.00;;;4.00;95.50;;;;;;4955508;28;20062;-70
2021/12/26 10:50:36;;;;;;;0.00;0.00;;;4.90;97.20;;;;;;4956537;28;20132;-67
2021/12/26 10:53:05;;;;;;;0.00;0.00;;;4.20;93.60;;;;;;4957157;28;20141;-70
2021/12/26 10:55:55;;;;;;;0.00;0.00;;;4.70;99.90;;;;;;4955610;28;20447;-62
2021/12/26 10:58:23;;;;;;;0.32;0.32;;;3.80;92.70;;;;;;4957049;28;20063;-70
2021/12/26 11:00:54;;;;;;;0.00;0.00;;;4.00;93.00;;;;;;4955000;28;20046;-68
2021/12/26 11:03:26;;;;;;;0.00;0.00;;;3.30;93.10;;;;;;4939215;28;20055;-69
2021/12/26 11:06:03;;;;;;;0.00;0.00;;;6.70;92.60;;;;;;4957107;28;20058;-69
2021/12/26 11:08:42;;;;;;;0.00;0.00;;;3.80;94.50;;;;;;4954858;28;20097;-69
2021/12/26 11:11:11;;;;;;;0.00;0.00;;;3.70;91.50;;;;;;4956919;28;20088;-70
2021/12/26 11:13:36;;;;;;;0.00;0.00;;;3.10;92.90;;;;;;4956703;28;20084;-70
2021/12/26 11:16:06;;;;;;;0.00;0.00;;;3.30;95.80;;;;;;4956062;28;20747;-69
2021/12/26 11:18:33;;;;;;;0.00;0.00;;;3.50;95.40;;;;;;4955655;28;20047;-68
2021/12/26 11:21:04;;;;;;;0.00;0.00;;;3.80;94.50;;;;;;4956646;28;20498;-72
2021/12/26 11:23:40;;;;;;;0.00;0.00;;;4.20;94.50;;;;;;4955056;28;20049;-71
2021/12/26 11:26:12;;;;;;;4.13;3.83;;;4.80;94.10;;;;;;4964655;28;20109;-72
2021/12/26 11:28:41;;;;;;;0.00;0.00;;;4.60;93.20;;;;;;4984312;28;20097;-71
2021/12/26 11:31:15;;;;;;;0.00;0.00;;;4.90;93.80;;;;;;4970200;28;20142;-72
2021/12/26 11:33:41;;;;;;;0.00;0.00;;;5.00;93.30;;;;;;4951407;28;20069;-72
2021/12/26 11:36:12;;;;;;;0.00;0.00;;;3.70;93.50;;;;;;4956665;28;20516;-72
2021/12/26 11:38:40;;;;;;;0.00;0.00;;;4.40;94.60;;;;;;4954246;28;20086;-72
2021/12/26 11:41:08;;;;;;;0.00;0.00;;;5.20;93.60;;;;;;4955469;28;20437;-70
2021/12/26 11:43:52;;;;;;;0.00;0.00;;;5.70;93.30;;;;;;4955523;28;20402;-70
2021/12/26 11:46:52;;;;;;;0.00;0.00;;;5.10;92.50;;;;;;4955072;28;20137;-70
2021/12/26 11:49:38;;;;;;;0.00;0.00;;;4.60;94.10;;;;;;4937204;28;20061;-71
2021/12/26 11:52:25;;;;;;;0.00;0.00;;;4.70;96.10;;;;;;4955668;28;20080;-71
2021/12/26 11:54:54;;;;;;;0.00;0.00;;;4.50;96.10;;;;;;4959723;28;20050;-73
2021/12/26 11:58:03;;;;;;;0.00;0.00;;;4.50;95.40;;;;;;4957813;28;20051;-70
2021/12/26 12:00:34;;;;;;;0.00;0.00;;;4.50;98.90;;;;;;4943174;28;20051;-71
2021/12/26 12:03:03;;;;;;;0.00;0.00;;;3.60;98.40;;;;;;4958082;28;20050;-70
2021/12/26 12:05:36;;;;;;;0.00;0.00;;;3.50;97.40;;;;;;4956910;28;20558;-71
2021/12/26 12:08:08;;;;;;;0.00;0.00;;;3.30;98.30;;;;;;4958751;28;20378;-70
2021/12/26 12:10:37;;;;;;;0.10;0.10;;;3.20;98.40;;;;;;4942748;28;20055;-70
2021/12/26 12:13:05;;;;;;;0.00;0.00;;;3.20;99.90;;;;;;4956921;28;20043;-70
2021/12/26 12:15:42;;;;;;;0.00;0.00;;;3.50;99.90;;;;;;4958542;28;20501;-71
2021/12/26 12:18:33;;;;;;;0.00;0.00;;;3.20;99.90;;;;;;4958242;28;20047;-70
2021/12/26 12:21:10;;;;;;;0.00;0.00;;;2.40;99.90;;;;;;4955542;28;20066;-70
2021/12/26 12:23:55;;;;;;;0.00;0.00;;;2.70;99.90;;;;;;4957782;28;20176;-70
2021/12/26 12:26:45;;;;;;;0.00;0.00;;;2.60;99.90;;;;;;4970695;28;20048;-71
2021/12/26 12:29:21;;;;;;;0.00;0.00;;;2.90;99.90;;;;;;4952697;28;20064;-71
2021/12/26 12:31:47;;;;;;;0.00;0.00;;;2.40;99.90;;;;;;4939677;28;20108;-71
2021/12/26 12:34:13;;;;;;;0.00;0.00;;;1.90;99.90;;;;;;4938130;28;20063;-71
2021/12/26 12:36:43;;;;;;;0.00;0.00;;;1.80;99.90;;;;;;4922266;29;20670;-70
2021/12/26 12:39:20;;;;;;;0.00;0.00;;;2.00;99.90;;;;;;4938790;29;20054;-71
2021/12/26 12:41:51;;;;;;;0.00;0.00;;;-0.80;99.90;;;;;;4922276;29;20044;-70
2021/12/26 12:44:36;;;;;;;0.38;0.38;;;1.90;99.90;;;;;;4937066;29;20070;-70
2021/12/26 12:47:18;;;;;;;0.00;0.00;;;2.00;99.90;;;;;;4938820;29;20117;-69
2021/12/26 12:49:51;;;;;;;0.00;0.00;;;2.30;99.90;;;;;;4936870;28;20051;-66
2021/12/26 12:52:43;;;;;;;0.00;0.00;;;2.40;99.90;;;;;;4939646;28;20134;-69
2021/12/26 12:55:13;;;;;;;0.00;0.00;;;2.10;99.90;;;;;;4939449;28;20043;-70